createdAt,value
2018-01-22T00:00:38.080Z,2.93
2018-01-22T00:03:06.384Z,2.68
2018-01-22T00:05:34.667Z,2.27
2018-01-22T00:08:02.979Z,2.48
2018-01-22T00:10:31.263Z,3.02
2018-01-22T00:12:59.576Z,2.55
2018-01-22T00:15:27.864Z,2.98
2018-01-22T00:17:56.171Z,2.78
2018-01-22T00:20:24.456Z,3.45
2018-01-22T00:22:52.756Z,2.80
2018-01-22T00:25:21.036Z,2.52
2018-01-22T00:27:49.365Z,2.37
2018-01-22T00:30:17.648Z,2.28
2018-01-22T00:32:45.952Z,2.32
2018-01-22T00:35:14.240Z,3.35
2018-01-22T00:37:42.531Z,2.52
2018-01-22T00:40:10.836Z,2.30
2018-01-22T00:42:39.120Z,2.60
2018-01-22T00:45:07.424Z,2.40
2018-01-22T00:47:35.704Z,2.88
2018-01-22T00:50:04.003Z,2.58
2018-01-22T00:52:32.288Z,2.47
2018-01-22T00:55:00.590Z,2.52
2018-01-22T00:57:28.876Z,2.45
2018-01-22T00:59:57.176Z,2.30
2018-01-22T01:02:25.463Z,2.73
2018-01-22T01:04:52.998Z,2.42
2018-01-22T01:07:21.286Z,2.42
2018-01-22T01:09:49.591Z,2.27
2018-01-22T01:12:17.884Z,2.37
2018-01-22T01:14:46.196Z,2.67
2018-01-22T01:17:14.476Z,2.32
2018-01-22T01:19:42.783Z,2.00
2018-01-22T01:22:11.068Z,2.17
2018-01-22T01:24:39.377Z,2.22
2018-01-22T01:27:06.898Z,2.12
2018-01-22T01:29:35.227Z,1.83
2018-01-22T01:32:03.506Z,3.00
2018-01-22T01:34:31.812Z,2.50
2018-01-22T01:37:00.100Z,2.12
2018-01-22T01:39:28.408Z,2.20
2018-01-22T01:41:55.936Z,2.30
2018-01-22T01:44:24.235Z,2.00
2018-01-22T01:46:51.742Z,2.10
2018-01-22T01:49:20.047Z,1.98
2018-01-22T01:51:48.339Z,2.00
2018-01-22T01:54:16.645Z,1.80
2018-01-22T01:56:44.932Z,1.83
2018-01-22T01:59:13.240Z,1.92
2018-01-22T02:01:40.765Z,2.33
2018-01-22T02:04:09.063Z,1.92
2018-01-22T02:06:37.347Z,2.10
2018-01-22T02:09:05.652Z,2.03
2018-01-22T02:11:33.936Z,1.83
2018-01-22T02:14:02.236Z,2.97
2018-01-22T02:16:30.519Z,1.83
2018-01-22T02:18:58.814Z,2.07
2018-01-22T02:21:27.100Z,2.02
2018-01-22T02:23:55.380Z,2.12
2018-01-22T02:26:23.683Z,2.00
2018-01-22T02:28:51.959Z,1.85
2018-01-22T02:31:20.268Z,1.87
2018-01-22T02:33:48.551Z,1.80
2018-01-22T02:36:16.856Z,1.93
2018-01-22T02:38:45.144Z,1.92
2018-01-22T02:41:13.452Z,1.80
2018-01-22T02:43:41.738Z,2.48
2018-01-22T02:46:10.047Z,3.12
2018-01-22T02:48:38.336Z,1.78
2018-01-22T02:51:06.643Z,1.73
2018-01-22T02:53:34.929Z,2.08
2018-01-22T02:56:03.242Z,2.03
2018-01-22T02:58:31.524Z,1.82
2018-01-22T03:00:59.827Z,1.57
2018-01-22T03:03:28.118Z,1.80
2018-01-22T03:05:56.428Z,1.70
2018-01-22T03:08:24.711Z,1.77
2018-01-22T03:10:53.011Z,2.67
2018-01-22T03:13:21.292Z,5.08
2018-01-22T03:15:49.592Z,1.53
2018-01-22T03:18:17.872Z,1.55
2018-01-22T03:20:46.175Z,1.70
2018-01-22T03:23:14.455Z,1.57
2018-01-22T03:25:42.759Z,1.57
2018-01-22T03:28:11.044Z,1.83
2018-01-22T03:30:39.353Z,1.78
2018-01-22T03:33:07.643Z,1.50
2018-01-22T03:35:35.947Z,2.08
2018-01-22T03:38:04.232Z,2.00
2018-01-22T03:40:32.552Z,1.90
2018-01-22T03:43:00.839Z,2.32
2018-01-22T03:45:29.155Z,1.70
2018-01-22T03:47:57.443Z,1.62
2018-01-22T03:50:25.747Z,1.50
2018-01-22T03:52:54.037Z,2.80
2018-01-22T03:55:22.348Z,1.73
2018-01-22T03:57:50.632Z,2.35
2018-01-22T04:00:18.948Z,1.87
2018-01-22T04:02:47.236Z,2.27
2018-01-22T04:05:15.552Z,1.73
2018-01-22T04:07:43.834Z,1.83
2018-01-22T04:10:12.115Z,2.35
2018-01-22T04:12:40.422Z,2.10
2018-01-22T04:15:08.703Z,1.92
2018-01-22T04:17:37.008Z,2.20
2018-01-22T04:20:05.284Z,1.95
2018-01-22T04:22:33.583Z,2.45
2018-01-22T04:25:01.868Z,1.63
2018-01-22T04:27:30.176Z,1.40
2018-01-22T04:29:58.459Z,1.82
2018-01-22T04:32:26.769Z,1.70
2018-01-22T04:34:55.052Z,1.77
2018-01-22T04:37:23.352Z,1.90
2018-01-22T04:39:51.631Z,1.80
2018-01-22T04:42:19.957Z,2.42
2018-01-22T04:44:47.484Z,1.93
2018-01-22T04:47:15.798Z,1.80
2018-01-22T04:49:44.079Z,2.17
2018-01-22T04:52:12.383Z,2.28
2018-01-22T04:54:40.674Z,2.98
2018-01-22T04:57:08.983Z,2.17
2018-01-22T04:59:37.271Z,3.00
2018-01-22T05:02:05.580Z,4.63
2018-01-22T05:04:33.867Z,2.52
2018-01-22T05:07:02.164Z,5.23
2018-01-22T05:09:30.439Z,5.17
2018-01-22T05:11:58.747Z,3.73
2018-01-22T05:14:27.032Z,2.20
2018-01-22T05:16:54.570Z,2.43
2018-01-22T05:19:22.856Z,2.78
2018-01-22T05:21:51.156Z,2.18
2018-01-22T05:24:19.443Z,2.08
2018-01-22T05:26:47.747Z,2.33
2018-01-22T05:29:16.028Z,1.90
2018-01-22T05:31:44.323Z,1.98
2018-01-22T05:34:12.609Z,2.58
2018-01-22T05:36:40.903Z,3.00
2018-01-22T05:39:09.188Z,3.93
2018-01-22T05:41:37.495Z,2.80
2018-01-22T05:44:05.781Z,2.82
2018-01-22T05:46:34.082Z,2.78
2018-01-22T05:49:02.367Z,6.62
2018-01-22T05:51:30.648Z,2.83
2018-01-22T05:53:58.956Z,2.27
2018-01-22T05:56:27.248Z,3.20
2018-01-22T05:58:55.559Z,2.43
2018-01-22T06:01:23.852Z,3.18
2018-01-22T06:03:52.154Z,2.20
2018-01-22T06:06:20.433Z,2.62
2018-01-22T06:08:48.740Z,2.00
2018-01-22T06:11:17.023Z,2.00
2018-01-22T06:13:45.333Z,1.85
2018-01-22T06:16:13.620Z,2.63
2018-01-22T06:18:41.920Z,2.63
2018-01-22T06:21:10.205Z,2.20
2018-01-22T06:23:38.516Z,2.50
2018-01-22T06:26:06.792Z,2.85
2018-01-22T06:28:35.100Z,2.53
2018-01-22T06:31:03.388Z,3.22
2018-01-22T06:33:31.687Z,4.03
2018-01-22T06:35:59.972Z,3.77
2018-01-22T06:38:28.280Z,4.57
2018-01-22T06:40:56.568Z,5.92
2018-01-22T06:43:24.875Z,5.43
2018-01-22T06:45:53.160Z,5.50
2018-01-22T06:48:21.456Z,6.12
2018-01-22T06:50:49.750Z,7.95
2018-01-22T06:53:18.060Z,13.82
2018-01-22T06:55:46.334Z,7.60
2018-01-22T06:58:14.638Z,13.30
2018-01-22T07:00:42.927Z,12.55
2018-01-22T07:03:11.236Z,23.65
2018-01-22T07:05:39.530Z,39.45
2018-01-22T07:08:07.840Z,16.62
2018-01-22T07:10:36.128Z,19.95
2018-01-22T07:13:04.431Z,35.27
2018-01-22T07:15:32.724Z,28.13
2018-01-22T07:18:01.044Z,16.87
2018-01-22T07:20:29.323Z,6.65
2018-01-22T07:22:57.641Z,25.85
2018-01-22T07:25:25.933Z,24.82
2018-01-22T07:27:54.299Z,20.58
2018-01-22T07:30:22.560Z,16.42
2018-01-22T07:32:50.876Z,12.27
2018-01-22T07:35:19.159Z,11.33
2018-01-22T07:37:47.448Z,11.93
2018-01-22T07:40:15.763Z,19.95
2018-01-22T07:42:44.052Z,12.18
2018-01-22T07:45:12.363Z,15.18
2018-01-22T07:47:40.648Z,15.10
2018-01-22T07:50:08.957Z,13.68
2018-01-22T07:52:37.243Z,27.65
2018-01-22T07:55:04.783Z,22.52
2018-01-22T07:57:33.067Z,16.82
2018-01-22T08:00:01.392Z,145.57
2018-01-22T08:02:29.684Z,30.10
2018-01-22T08:04:58.001Z,17.35
2018-01-22T08:07:26.301Z,20.23
2018-01-22T08:09:54.609Z,36.43
2018-01-22T08:12:22.888Z,13.70
2018-01-22T08:14:51.202Z,14.58
2018-01-22T08:17:19.488Z,12.43
2018-01-22T08:19:47.804Z,17.87
2018-01-22T08:22:15.364Z,16.37
2018-01-22T08:24:43.655Z,17.28
2018-01-22T08:27:11.953Z,17.27
2018-01-22T08:29:40.260Z,16.13
2018-01-22T08:32:08.560Z,13.33
2018-01-22T08:34:36.880Z,15.57
2018-01-22T08:37:05.166Z,14.80
2018-01-22T08:39:33.480Z,12.73
2018-01-22T08:42:01.820Z,12.63
2018-01-22T08:44:30.096Z,14.10
2018-01-22T08:46:58.380Z,11.22
2018-01-22T08:49:26.695Z,10.75
2018-01-22T08:51:54.976Z,9.98
2018-01-22T08:54:23.296Z,10.53
2018-01-22T08:56:51.587Z,9.28
2018-01-22T08:59:19.897Z,10.03
2018-01-22T09:01:48.182Z,10.97
2018-01-22T09:04:16.502Z,15.37
2018-01-22T09:06:44.789Z,11.07
2018-01-22T09:09:13.099Z,12.92
2018-01-22T09:11:40.617Z,12.55
2018-01-22T09:14:08.933Z,15.70
2018-01-22T09:16:37.223Z,12.55
2018-01-22T09:19:05.536Z,9.35
2018-01-22T09:21:33.055Z,11.47
2018-01-22T09:24:01.340Z,11.40
2018-01-22T09:26:29.676Z,12.48
2018-01-22T09:28:57.967Z,16.37
2018-01-22T09:31:26.275Z,24.83
2018-01-22T09:33:54.583Z,18.42
2018-01-22T09:36:22.141Z,23.78
2018-01-22T09:38:50.428Z,15.18
2018-01-22T09:41:18.739Z,14.65
2018-01-22T09:43:47.031Z,17.82
2018-01-22T09:46:15.345Z,14.77
2018-01-22T09:48:43.631Z,9.68
2018-01-22T09:51:11.944Z,14.17
2018-01-22T09:53:39.459Z,11.43
2018-01-22T09:56:07.767Z,11.42
2018-01-22T09:58:36.055Z,10.82
2018-01-22T10:01:04.363Z,8.13
2018-01-22T10:03:32.651Z,9.02
2018-01-22T10:06:00.956Z,9.22
2018-01-22T10:08:29.244Z,6.72
2018-01-22T10:10:57.553Z,8.43
2018-01-22T10:13:25.855Z,9.13
2018-01-22T10:15:54.171Z,10.90
2018-01-22T10:18:22.456Z,10.48
2018-01-22T10:20:50.768Z,11.92
2018-01-22T10:23:19.065Z,11.15
2018-01-22T10:25:47.373Z,14.75
2018-01-22T10:28:15.683Z,10.02
2018-01-22T10:30:43.987Z,9.03
2018-01-22T10:33:12.263Z,8.93
2018-01-22T10:35:40.566Z,8.88
2018-01-22T10:38:08.095Z,6.83
2018-01-22T10:40:36.403Z,10.52
2018-01-22T10:43:04.759Z,9.55
2018-01-22T10:45:33.060Z,8.85
2018-01-22T10:48:01.351Z,9.92
2018-01-22T10:50:29.655Z,14.43
2018-01-22T10:52:57.945Z,12.77
2018-01-22T10:55:26.250Z,10.75
2018-01-22T10:57:54.540Z,12.13
2018-01-22T11:00:22.847Z,11.52
2018-01-22T11:02:51.131Z,19.20
2018-01-22T11:05:19.451Z,11.72
2018-01-22T11:07:47.736Z,12.95
2018-01-22T11:10:16.029Z,12.92
2018-01-22T11:12:44.330Z,8.60
2018-01-22T11:15:12.623Z,7.02
2018-01-22T11:17:40.933Z,12.88
2018-01-22T11:20:09.227Z,13.22
2018-01-22T11:22:37.543Z,9.43
2018-01-22T11:25:05.830Z,14.18
2018-01-22T11:27:34.134Z,10.18
2018-01-22T11:30:02.425Z,10.40
2018-01-22T11:32:30.739Z,14.45
2018-01-22T11:34:59.035Z,13.93
2018-01-22T11:37:27.348Z,15.80
2018-01-22T11:39:55.636Z,9.87
2018-01-22T11:42:23.184Z,9.78
2018-01-22T11:44:51.475Z,9.72
2018-01-22T11:47:19.789Z,11.03
2018-01-22T11:49:48.075Z,12.55
2018-01-22T11:52:16.387Z,8.27
2018-01-22T11:54:43.909Z,8.23
2018-01-22T11:57:12.219Z,10.58
2018-01-22T11:59:40.508Z,11.17
2018-01-22T12:02:08.816Z,13.93
2018-01-22T12:04:37.115Z,12.42
2018-01-22T12:07:05.424Z,13.48
2018-01-22T12:09:33.716Z,12.13
2018-01-22T12:12:02.031Z,9.43
2018-01-22T12:14:30.320Z,9.28
2018-01-22T12:16:58.628Z,8.92
2018-01-22T12:19:26.921Z,9.80
2018-01-22T12:21:55.240Z,9.88
2018-01-22T12:24:23.532Z,12.78
2018-01-22T12:26:51.844Z,9.75
2018-01-22T12:29:20.140Z,11.33
2018-01-22T12:31:47.683Z,12.15
2018-01-22T12:34:15.972Z,11.25
2018-01-22T12:36:44.330Z,9.73
2018-01-22T12:39:12.607Z,10.37
2018-01-22T12:41:40.918Z,11.58
2018-01-22T12:44:09.216Z,11.97
2018-01-22T12:46:37.531Z,10.58
2018-01-22T12:49:05.834Z,12.82
2018-01-22T12:51:34.133Z,14.68
2018-01-22T12:54:02.447Z,12.80
2018-01-22T12:56:30.744Z,14.68
2018-01-22T12:58:59.064Z,13.80
2018-01-22T13:01:26.592Z,14.60
2018-01-22T13:03:54.904Z,13.68
2018-01-22T13:06:23.208Z,17.67
2018-01-22T13:08:51.524Z,13.05
2018-01-22T13:11:19.820Z,12.57
2018-01-22T13:13:48.127Z,10.73
2018-01-22T13:16:16.424Z,16.42
2018-01-22T13:18:44.752Z,14.98
2018-01-22T13:21:13.055Z,12.82
2018-01-22T13:23:41.380Z,13.48
2018-01-22T13:26:09.675Z,12.73
2018-01-22T13:28:37.992Z,13.60
2018-01-22T13:31:06.283Z,22.27
2018-01-22T13:33:34.599Z,21.10
2018-01-22T13:36:02.896Z,18.80
2018-01-22T13:38:31.216Z,15.03
2018-01-22T13:41:05.227Z,24.13
2018-01-22T13:43:33.554Z,34.43
2018-01-22T13:46:01.856Z,49.40
2018-01-22T13:48:30.215Z,30.52
2018-01-22T13:50:58.534Z,40.57
2018-01-22T13:53:26.824Z,32.35
2018-01-22T13:55:55.124Z,32.97
2018-01-22T13:58:23.444Z,29.75
2018-01-22T14:00:50.984Z,18.05
2018-01-22T14:03:19.307Z,19.10
2018-01-22T14:05:47.604Z,14.65
2018-01-22T14:08:15.918Z,19.63
2018-01-22T14:10:44.228Z,17.13
2018-01-22T14:13:12.543Z,18.05
2018-01-22T14:15:40.852Z,14.45
2018-01-22T14:18:09.177Z,16.23
2018-01-22T14:20:37.472Z,18.02
2018-01-22T14:23:05.787Z,22.02
2018-01-22T14:25:34.088Z,20.77
2018-01-22T14:28:02.407Z,18.92
2018-01-22T14:30:30.707Z,18.45
2018-01-22T14:32:59.023Z,19.48
2018-01-22T14:35:27.320Z,18.35
2018-01-22T14:37:55.648Z,21.18
2018-01-22T14:40:23.948Z,21.00
2018-01-22T14:42:52.239Z,15.72
2018-01-22T14:45:20.551Z,20.32
2018-01-22T14:47:48.852Z,18.28
2018-01-22T14:50:17.176Z,16.25
2018-01-22T14:52:45.467Z,13.77
2018-01-22T14:55:13.789Z,15.77
2018-01-22T14:57:42.088Z,14.00
2018-01-22T15:00:10.404Z,20.20
2018-01-22T15:02:38.707Z,14.28
2018-01-22T15:05:07.019Z,15.70
2018-01-22T15:07:35.315Z,16.48
2018-01-22T15:10:03.632Z,16.50
2018-01-22T15:12:31.975Z,17.47
2018-01-22T15:15:00.267Z,21.53
2018-01-22T15:17:28.567Z,23.90
2018-01-22T15:19:56.880Z,24.10
2018-01-22T15:22:24.406Z,21.82
2018-01-22T15:24:51.962Z,17.03
2018-01-22T15:27:20.259Z,20.08
2018-01-22T15:29:48.577Z,17.40
2018-01-22T15:32:16.871Z,19.47
2018-01-22T15:34:45.181Z,24.98
2018-01-22T15:37:13.481Z,25.40
2018-01-22T15:39:41.803Z,26.98
2018-01-22T15:42:10.100Z,25.85
2018-01-22T15:44:38.420Z,24.07
2018-01-22T15:47:05.951Z,18.20
2018-01-22T15:49:34.267Z,22.43
2018-01-22T15:52:02.563Z,23.85
2018-01-22T15:54:30.880Z,19.58
2018-01-22T15:56:59.176Z,23.42
2018-01-22T15:59:27.492Z,18.68
2018-01-22T16:01:55.788Z,23.55
2018-01-22T16:04:24.098Z,22.97
2018-01-22T16:06:52.402Z,19.30
2018-01-22T16:09:20.716Z,29.05
2018-01-22T16:11:49.008Z,23.95
2018-01-22T16:14:17.324Z,22.60
2018-01-22T16:16:45.627Z,28.85
2018-01-22T16:19:13.935Z,27.20
2018-01-22T16:21:42.223Z,36.15
2018-01-22T16:24:09.762Z,31.25
2018-01-22T16:26:38.079Z,62.05
2018-01-22T16:29:06.372Z,46.83
2018-01-22T16:31:34.707Z,29.47
2018-01-22T16:34:03.168Z,34.85
2018-01-22T16:36:31.492Z,35.73
2018-01-22T16:38:59.815Z,33.38
2018-01-22T16:41:28.131Z,25.28
2018-01-22T16:43:56.427Z,34.37
2018-01-22T16:46:24.739Z,30.82
2018-01-22T16:48:53.023Z,33.90
2018-01-22T16:51:21.385Z,27.08
2018-01-22T16:53:49.671Z,34.73
2018-01-22T16:56:17.237Z,22.13
2018-01-22T16:58:45.540Z,17.98
2018-01-22T17:01:13.863Z,24.08
2018-01-22T17:03:42.164Z,27.72
2018-01-22T17:06:10.492Z,15.37
2018-01-22T17:08:38.783Z,11.73
2018-01-22T17:11:07.097Z,16.18
2018-01-22T17:13:35.388Z,16.42
2018-01-22T17:16:03.704Z,30.70
2018-01-22T17:18:31.992Z,13.30
2018-01-22T17:21:00.304Z,14.62
2018-01-22T17:23:27.836Z,13.13
2018-01-22T17:25:56.144Z,12.58
2018-01-22T17:28:24.436Z,9.57
2018-01-22T17:30:52.754Z,11.33
2018-01-22T17:33:21.052Z,12.17
2018-01-22T17:35:49.363Z,10.40
2018-01-22T17:38:17.653Z,15.13
2018-01-22T17:40:45.968Z,13.75
2018-01-22T17:43:14.264Z,11.37
2018-01-22T17:45:41.813Z,7.23
2018-01-22T17:48:10.109Z,14.20
2018-01-22T17:50:38.429Z,7.82
2018-01-22T17:53:06.716Z,12.30
2018-01-22T17:55:35.024Z,11.92
2018-01-22T17:58:03.312Z,13.30
2018-01-22T18:00:31.624Z,11.60
2018-01-22T18:02:59.907Z,14.70
2018-01-22T18:05:28.201Z,17.12
2018-01-22T18:07:56.512Z,16.55
2018-01-22T18:10:24.808Z,28.20
2018-01-22T18:12:53.120Z,39.33
2018-01-22T18:15:21.416Z,40.17
2018-01-22T18:17:49.737Z,21.93
2018-01-22T18:20:18.033Z,19.27
2018-01-22T18:22:46.352Z,18.95
2018-01-22T18:25:14.643Z,17.07
2018-01-22T18:27:42.958Z,18.93
2018-01-22T18:30:11.250Z,11.93
2018-01-22T18:32:39.583Z,13.53
2018-01-22T18:35:07.878Z,11.12
2018-01-22T18:37:36.191Z,11.88
2018-01-22T18:40:04.482Z,13.88
2018-01-22T18:42:32.795Z,11.62
2018-01-22T18:45:01.083Z,10.23
2018-01-22T18:47:29.419Z,17.37
2018-01-22T18:49:57.721Z,13.32
2018-01-22T18:52:26.036Z,17.65
2018-01-22T18:54:54.332Z,17.22
2018-01-22T18:57:21.876Z,17.87
2018-01-22T18:59:50.168Z,16.57
2018-01-22T19:02:18.487Z,18.93
2018-01-22T19:04:46.784Z,10.92
2018-01-22T19:07:15.096Z,13.60
2018-01-22T19:09:43.391Z,17.55
2018-01-22T19:12:10.944Z,28.20
2018-01-22T19:14:39.235Z,18.62
2018-01-22T19:17:07.540Z,22.48
2018-01-22T19:19:35.828Z,15.05
2018-01-22T19:22:04.136Z,17.57
2018-01-22T19:24:32.434Z,20.75
2018-01-22T19:27:00.748Z,15.58
2018-01-22T19:29:29.043Z,16.12
2018-01-22T19:31:57.359Z,20.38
2018-01-22T19:34:25.650Z,15.70
2018-01-22T19:36:53.200Z,20.48
2018-01-22T19:39:21.495Z,15.85
2018-01-22T19:41:49.811Z,18.23
2018-01-22T19:44:18.108Z,14.67
2018-01-22T19:46:46.435Z,19.27
2018-01-22T19:49:14.736Z,22.55
2018-01-22T19:51:43.028Z,15.18
2018-01-22T19:54:11.336Z,15.75
2018-01-22T19:56:38.872Z,36.93
2018-01-22T19:59:07.187Z,23.70
2018-01-22T20:01:35.482Z,51.80
2018-01-22T20:04:03.800Z,41.25
2018-01-22T20:06:32.095Z,72.72
2018-01-22T20:09:00.408Z,52.25
2018-01-22T20:11:28.705Z,31.82
2018-01-22T20:13:57.019Z,27.98
2018-01-22T20:16:25.312Z,25.03
2018-01-22T20:18:53.632Z,18.35
2018-01-22T20:21:21.924Z,23.97
2018-01-22T20:23:50.254Z,19.02
2018-01-22T20:26:18.547Z,23.05
2018-01-22T20:28:46.859Z,16.08
2018-01-22T20:31:15.152Z,17.62
2018-01-22T20:33:43.477Z,16.23
2018-01-22T20:36:11.772Z,24.33
2018-01-22T20:38:40.088Z,12.82
2018-01-22T20:41:08.377Z,11.85
2018-01-22T20:43:36.689Z,16.55
2018-01-22T20:46:04.976Z,16.53
2018-01-22T20:48:33.291Z,21.42
2018-01-22T20:51:01.581Z,24.72
2018-01-22T20:53:29.895Z,25.97
2018-01-22T20:55:58.190Z,23.52
2018-01-22T20:58:26.501Z,23.80
2018-01-22T21:00:54.805Z,17.35
2018-01-22T21:03:23.162Z,19.87
2018-01-22T21:05:51.435Z,20.22
2018-01-22T21:08:19.753Z,19.35
2018-01-22T21:10:48.044Z,23.92
2018-01-22T21:13:16.356Z,25.68
2018-01-22T21:15:44.644Z,25.13
2018-01-22T21:18:12.955Z,18.22
2018-01-22T21:20:41.248Z,18.62
2018-01-22T21:23:09.562Z,35.72
2018-01-22T21:25:37.859Z,20.45
2018-01-22T21:28:06.171Z,15.10
2018-01-22T21:30:34.455Z,20.87
2018-01-22T21:33:02.769Z,13.43
2018-01-22T21:35:31.079Z,13.18
2018-01-22T21:37:59.379Z,17.18
2018-01-22T21:40:27.696Z,10.22
2018-01-22T21:42:55.988Z,11.63
2018-01-22T21:45:24.299Z,11.37
2018-01-22T21:47:52.592Z,12.68
2018-01-22T21:50:20.927Z,14.22
2018-01-22T21:52:49.219Z,13.25
2018-01-22T21:55:17.528Z,12.80
2018-01-22T21:57:45.823Z,15.58
2018-01-22T22:00:14.128Z,15.75
2018-01-22T22:02:42.424Z,17.75
2018-01-22T22:05:10.740Z,10.77
2018-01-22T22:07:39.031Z,13.70
2018-01-22T22:10:07.345Z,16.15
2018-01-22T22:12:35.633Z,20.47
2018-01-22T22:15:03.944Z,15.45
2018-01-22T22:17:32.239Z,15.62
2018-01-22T22:20:00.556Z,15.45
2018-01-22T22:22:28.856Z,17.28
2018-01-22T22:24:57.168Z,19.68
2018-01-22T22:27:25.453Z,13.83
2018-01-22T22:29:53.760Z,16.62
2018-01-22T22:32:22.051Z,12.28
2018-01-22T22:34:49.591Z,23.82
2018-01-22T22:37:17.888Z,14.30
2018-01-22T22:39:46.200Z,19.28
2018-01-22T22:42:14.492Z,11.63
2018-01-22T22:44:42.799Z,13.20
2018-01-22T22:47:11.099Z,18.32
2018-01-22T22:49:39.423Z,22.07
2018-01-22T22:52:07.720Z,20.20
2018-01-22T22:54:36.030Z,14.85
2018-01-22T22:57:03.547Z,19.67
2018-01-22T22:59:31.868Z,19.90
2018-01-22T23:02:00.200Z,28.35
2018-01-22T23:04:28.493Z,27.77
2018-01-22T23:06:56.783Z,19.52
2018-01-22T23:09:25.100Z,18.47
2018-01-22T23:11:52.627Z,16.52
2018-01-22T23:14:20.947Z,19.82
2018-01-22T23:16:49.239Z,32.10
2018-01-22T23:19:17.532Z,34.55
2018-01-22T23:21:45.840Z,33.45
2018-01-22T23:24:14.144Z,22.07
2018-01-22T23:26:42.452Z,24.35
2018-01-22T23:29:10.744Z,77.78
2018-01-22T23:31:39.060Z,31.15
2018-01-22T23:34:07.363Z,48.55
2018-01-22T23:36:35.676Z,62.15
2018-01-22T23:39:03.966Z,41.27
2018-01-22T23:41:32.280Z,19.65
2018-01-22T23:44:00.570Z,39.48
2018-01-22T23:46:28.883Z,61.52
2018-01-22T23:48:57.164Z,38.55
2018-01-22T23:51:25.483Z,78.85
2018-01-22T23:53:53.017Z,59.52
2018-01-22T23:56:21.333Z,34.78
2018-01-22T23:58:49.627Z,53.95
